Time;durP1;ratioP1;P1;durP2;ratioP2;P2;SDS_P1;SDS_P2;PMS_P1;PMS_P2;Temp;Humidity;BMP_temperature;BMP_pressure;BME280_temperature;BME280_humidity;BME280_pressure;Samples;Min_cycle;Max_cycle;Signal;HPM_P1;HPM_P2
2022/12/10 00:04:27;;;;;;;8.23;5.75;;;8.00;89.40;;;;;;10788987;33;20338;-73
2022/12/10 00:10:29;;;;;;;7.57;5.07;;;8.10;89.50;;;;;;10788750;33;20303;-72
2022/12/10 00:16:33;;;;;;;10.60;7.75;;;8.10;89.60;;;;;;10788628;33;20394;-73
2022/12/10 00:22:35;;;;;;;12.50;9.55;;;8.10;89.60;;;;;;10808877;27;20195;-73
2022/12/10 00:28:45;;;;;;;11.85;7.82;;;8.20;89.60;;;;;;10825204;33;20024;-73
2022/12/10 00:34:47;;;;;;;13.75;8.95;;;8.30;89.60;;;;;;10824942;33;20062;-73
2022/12/10 00:40:49;;;;;;;11.00;8.52;;;8.20;89.60;;;;;;10810789;33;20049;-72
2022/12/10 00:46:51;;;;;;;9.07;6.85;;;8.30;89.60;;;;;;10824712;33;20038;-72
2022/12/10 00:52:53;;;;;;;14.60;11.25;;;8.20;89.60;;;;;;10824414;33;20071;-72
2022/12/10 00:59:19;;;;;;;10.48;8.40;;;8.20;89.70;;;;;;10811227;32;20353;-73
2022/12/10 01:05:21;;;;;;;11.27;8.20;;;8.20;89.80;;;;;;10824232;33;20021;-72
2022/12/10 01:11:29;;;;;;;13.77;10.27;;;8.10;89.60;;;;;;10824109;33;20054;-73
2022/12/10 01:17:30;;;;;;;10.18;7.20;;;8.00;89.70;;;;;;10810712;33;20024;-73
2022/12/10 01:23:38;;;;;;;11.27;6.93;;;8.00;89.80;;;;;;10823713;33;20017;-73
2022/12/10 01:29:41;;;;;;;9.93;6.68;;;8.10;90.00;;;;;;10823640;33;20050;-73
2022/12/10 01:35:46;;;;;;;9.85;7.07;;;8.10;89.80;;;;;;10810507;33;20024;-73
2022/12/10 01:41:55;;;;;;;10.63;6.12;;;8.30;89.80;;;;;;10810588;33;20632;-73
2022/12/10 01:47:58;;;;;;;12.10;8.57;;;8.30;89.70;;;;;;10810092;33;20538;-73
2022/12/10 01:54:01;;;;;;;10.25;6.37;;;8.30;89.60;;;;;;10824744;32;20082;-73
2022/12/10 02:00:06;;;;;;;12.23;8.43;;;8.20;89.60;;;;;;10828325;33;20047;-73
2022/12/10 02:07:06;;;;;;;17.90;12.48;;;8.10;89.60;;;;;;10825162;33;20028;-73
2022/12/10 02:13:32;;;;;;;10.55;6.93;;;8.00;89.60;;;;;;10679502;33;20164;-73
2022/12/10 02:19:50;;;;;;;12.15;8.07;;;7.80;89.70;;;;;;10674147;33;20067;-73
2022/12/10 02:26:01;;;;;;;12.23;7.35;;;7.80;89.80;;;;;;10679224;33;20021;-73
2022/12/10 02:32:15;;;;;;;10.07;6.53;;;7.90;89.90;;;;;;10674846;33;20037;-73
2022/12/10 02:38:27;;;;;;;15.50;10.45;;;8.10;89.80;;;;;;10678743;33;20029;-73
2022/12/10 02:44:32;;;;;;;10.45;7.37;;;8.10;89.70;;;;;;10692987;32;20063;-73
2022/12/10 02:50:34;;;;;;;13.98;7.80;;;8.00;89.50;;;;;;10828054;33;20024;-73
2022/12/10 02:56:51;;;;;;;12.32;6.87;;;7.90;89.50;;;;;;10823588;33;20051;-73
2022/12/10 03:03:28;;;;;;;13.30;7.22;;;7.90;89.60;;;;;;10822676;32;20046;-73
2022/12/10 03:09:41;;;;;;;12.48;7.18;;;7.90;89.60;;;;;;10642830;33;20081;-73
2022/12/10 03:15:45;;;;;;;11.90;7.65;;;7.90;89.70;;;;;;10641750;33;20041;-73
2022/12/10 03:21:50;;;;;;;15.25;11.27;;;7.90;89.70;;;;;;10641295;33;20057;-73
2022/12/10 03:27:55;;;;;;;17.35;10.70;;;7.80;89.70;;;;;;10642316;33;20029;-73
2022/12/10 03:33:58;;;;;;;17.48;10.60;;;7.90;89.70;;;;;;10642264;33;20320;-73
2022/12/10 03:40:01;;;;;;;17.20;11.63;;;7.80;89.60;;;;;;10641999;33;20266;-73
2022/12/10 03:46:03;;;;;;;12.70;7.95;;;7.90;89.90;;;;;;10776141;33;20062;-73
2022/12/10 03:52:05;;;;;;;12.18;8.02;;;8.00;89.80;;;;;;10826139;33;20350;-73
2022/12/10 03:58:07;;;;;;;11.50;6.82;;;8.10;89.60;;;;;;10812799;33;20021;-73
2022/12/10 04:04:09;;;;;;;12.95;7.25;;;8.00;89.50;;;;;;10825962;32;20020;-73
2022/12/10 04:10:12;;;;;;;19.23;12.40;;;8.00;89.80;;;;;;10821587;33;20050;-73
2022/12/10 04:16:26;;;;;;;10.60;5.95;;;7.90;89.60;;;;;;10825459;33;20039;-73
2022/12/10 04:28:48;;;;;;;13.62;9.93;;;7.70;89.70;;;;;;10825055;33;20020;-73
2022/12/10 04:34:51;;;;;;;10.57;7.37;;;7.70;89.60;;;;;;10824957;33;20051;-73
2022/12/10 04:40:52;;;;;;;7.78;5.28;;;7.70;89.70;;;;;;10824890;32;20028;-73
2022/12/10 04:47:05;;;;;;;9.85;6.18;;;7.70;89.80;;;;;;10821805;32;20057;-73
2022/12/10 04:53:07;;;;;;;12.00;8.00;;;7.70;89.70;;;;;;10824500;33;20024;-73
2022/12/10 04:59:09;;;;;;;11.45;7.05;;;7.80;89.80;;;;;;10824505;33;20020;-73
2022/12/10 05:05:12;;;;;;;10.20;6.05;;;7.80;89.70;;;;;;10811244;33;20023;-73
2022/12/10 05:11:17;;;;;;;16.12;8.85;;;7.80;89.70;;;;;;10811012;33;20058;-72
2022/12/10 05:17:18;;;;;;;12.57;7.50;;;7.90;89.90;;;;;;10811032;33;20016;-72
2022/12/10 05:23:29;;;;;;;12.43;7.47;;;8.00;89.80;;;;;;10823798;32;20100;-72
2022/12/10 05:29:32;;;;;;;10.13;6.25;;;8.00;89.60;;;;;;10826134;33;20065;-72
2022/12/10 05:35:34;;;;;;;19.10;13.57;;;8.00;89.70;;;;;;10830125;33;20012;-72
2022/12/10 05:41:38;;;;;;;15.18;10.45;;;8.10;89.70;;;;;;10829981;33;20016;-72
2022/12/10 05:47:40;;;;;;;13.75;8.88;;;8.20;89.60;;;;;;10829732;33;20183;-72
2022/12/10 05:53:42;;;;;;;12.95;7.72;;;8.20;89.70;;;;;;10829587;33;20028;-72
2022/12/10 05:59:44;;;;;;;15.48;9.60;;;8.20;89.70;;;;;;10829553;33;20389;-72
2022/12/10 06:05:47;;;;;;;19.30;11.88;;;8.20;89.80;;;;;;10829168;32;20047;-72
2022/12/10 06:11:49;;;;;;;12.60;7.47;;;8.20;89.70;;;;;;10829054;32;20424;-72
2022/12/10 06:17:51;;;;;;;14.23;8.82;;;8.20;89.70;;;;;;10828867;32;20058;-72
2022/12/10 06:23:54;;;;;;;19.15;11.98;;;8.10;89.80;;;;;;10828604;33;20012;-72
2022/12/10 06:29:57;;;;;;;13.30;8.57;;;8.20;89.80;;;;;;10828292;33;20044;-72
2022/12/10 06:35:59;;;;;;;12.02;7.80;;;8.20;89.70;;;;;;10814250;32;20279;-72
2022/12/10 06:42:01;;;;;;;17.30;10.95;;;8.10;89.80;;;;;;10828170;33;20453;-72
2022/12/10 06:48:03;;;;;;;14.85;9.45;;;8.20;89.90;;;;;;10828016;33;20020;-72
2022/12/10 06:54:05;;;;;;;18.40;14.35;;;8.20;89.90;;;;;;10827721;32;20016;-72
2022/12/10 07:00:08;;;;;;;19.83;12.05;;;8.30;89.90;;;;;;10814372;33;20028;-72
2022/12/10 07:06:12;;;;;;;15.82;8.10;;;8.30;89.90;;;;;;10825832;33;20011;-72
2022/12/10 07:12:15;;;;;;;12.82;7.43;;;8.30;89.80;;;;;;10827167;33;20024;-71
2022/12/10 07:18:17;;;;;;;10.82;7.70;;;8.30;89.80;;;;;;10827222;32;20365;-71
2022/12/10 07:24:19;;;;;;;13.02;8.77;;;8.30;89.80;;;;;;10826903;33;20015;-71
2022/12/10 07:30:21;;;;;;;11.15;6.45;;;8.20;89.80;;;;;;10826843;32;20392;-71
2022/12/10 07:36:23;;;;;;;23.40;10.43;;;8.20;89.90;;;;;;10826561;33;20024;-71
2022/12/10 07:42:26;;;;;;;14.48;8.15;;;8.20;89.90;;;;;;10826359;32;20024;-75
2022/12/10 07:48:49;;;;;;;14.48;8.65;;;8.20;89.90;;;;;;10825888;32;20291;-75
2022/12/10 07:54:51;;;;;;;15.75;8.50;;;8.20;89.90;;;;;;10826190;33;20059;-75
2022/12/10 08:00:53;;;;;;;19.15;11.98;;;8.20;89.90;;;;;;10812770;33;20541;-75
2022/12/10 08:06:56;;;;;;;15.40;9.27;;;8.20;89.80;;;;;;10822493;33;20016;-75
2022/12/10 08:12:58;;;;;;;20.73;10.25;;;8.10;89.80;;;;;;10825317;33;20036;-76
2022/12/10 08:19:00;;;;;;;25.58;12.60;;;8.20;89.90;;;;;;10826023;33;20325;-77
2022/12/10 08:25:03;;;;;;;15.35;9.45;;;8.20;89.90;;;;;;10272562;33;17108475;-76
2022/12/10 08:31:08;;;;;;;13.55;8.00;;;8.40;89.80;;;;;;10782829;33;20402;-76
2022/12/10 08:37:11;;;;;;;10.85;4.90;;;8.30;89.70;;;;;;10784970;33;20079;-76
2022/12/10 08:43:14;;;;;;;29.42;22.55;;;8.30;89.70;;;;;;10780215;33;20024;-77
2022/12/10 08:49:16;;;;;;;20.37;10.90;;;8.20;89.70;;;;;;10742762;33;20033;-77
2022/12/10 08:55:19;;;;;;;32.70;20.85;;;8.10;89.90;;;;;;10708856;33;20057;-77
2022/12/10 09:01:22;;;;;;;18.87;9.73;;;8.10;89.80;;;;;;10692832;33;20091;-77
2022/12/10 09:07:24;;;;;;;17.15;11.25;;;8.10;89.90;;;;;;10709946;33;20056;-77
2022/12/10 09:13:26;;;;;;;29.08;14.48;;;8.10;89.80;;;;;;10714067;33;20056;-77
2022/12/10 09:19:28;;;;;;;35.35;20.05;;;8.00;89.80;;;;;;10714519;33;20048;-77
2022/12/10 09:25:31;;;;;;;22.20;11.82;;;7.90;89.80;;;;;;10697243;33;20033;-77
2022/12/10 09:31:32;;;;;;;22.50;13.10;;;8.00;89.90;;;;;;10713208;33;20032;-77
2022/12/10 09:37:35;;;;;;;12.90;9.13;;;8.20;90.00;;;;;;10713273;33;20032;-77
2022/12/10 09:43:50;;;;;;;22.17;12.70;;;8.20;89.80;;;;;;10709208;33;20037;-77
2022/12/10 09:50:10;;;;;;;11.35;8.10;;;8.30;89.90;;;;;;10708911;33;20447;-76
2022/12/10 09:56:24;;;;;;;15.45;9.55;;;8.40;89.80;;;;;;10725076;33;20429;-73
2022/12/10 10:02:31;;;;;;;19.60;11.90;;;8.40;89.90;;;;;;10712402;33;20051;-73
2022/12/10 10:08:36;;;;;;;13.30;9.23;;;8.40;90.00;;;;;;10708403;33;20033;-74
2022/12/10 10:14:38;;;;;;;16.45;10.13;;;8.50;90.10;;;;;;10718240;33;20033;-72
2022/12/10 10:20:41;;;;;;;15.68;12.52;;;8.60;90.10;;;;;;10694401;33;20057;-72
2022/12/10 10:27:14;;;;;;;14.07;9.80;;;8.60;89.80;;;;;;10683992;33;20037;-72
2022/12/10 10:34:18;;;;;;;23.42;16.85;;;8.60;89.80;;;;;;10683597;33;20320;-72
2022/12/10 10:40:42;;;;;;;15.52;9.13;;;8.60;89.90;;;;;;10755676;32;20028;-72
2022/12/10 10:46:47;;;;;;;17.62;12.27;;;8.60;89.90;;;;;;10755105;32;20044;-72
2022/12/10 10:52:49;;;;;;;16.05;9.93;;;8.60;89.80;;;;;;10743734;33;20032;-72
2022/12/10 10:59:03;;;;;;;22.30;15.38;;;8.70;89.80;;;;;;10757439;33;20064;-72
2022/12/10 11:05:35;;;;;;;17.12;11.93;;;8.70;89.80;;;;;;10756259;33;20044;-72
2022/12/10 11:11:43;;;;;;;15.55;10.65;;;8.70;89.80;;;;;;10752395;33;20037;-77
2022/12/10 11:17:48;;;;;;;19.98;10.18;;;8.90;89.90;;;;;;10690349;33;20040;-77
2022/12/10 11:23:58;;;;;;;13.25;8.35;;;9.00;89.90;;;;;;10685203;33;20316;-76
2022/12/10 11:30:02;;;;;;;18.92;12.52;;;9.20;89.80;;;;;;10713327;33;20064;-77
2022/12/10 11:36:37;;;;;;;26.58;15.32;;;9.20;89.80;;;;;;10716898;32;20433;-76
2022/12/10 11:43:16;;;;;;;21.27;12.30;;;9.20;89.70;;;;;;10716587;33;20017;-76
2022/12/10 11:49:37;;;;;;;17.87;10.38;;;9.20;89.80;;;;;;10791228;32;20151;-76
2022/12/10 11:55:49;;;;;;;12.57;9.35;;;9.40;89.70;;;;;;10790017;33;20047;-77
2022/12/10 12:02:15;;;;;;;17.25;13.02;;;9.40;89.60;;;;;;10790027;33;20209;-76
2022/12/10 12:08:35;;;;;;;19.73;15.27;;;9.50;89.70;;;;;;10787749;33;20083;-76
2022/12/10 12:14:37;;;;;;;;;;;9.50;89.70;;;;;;10790241;33;20063;-76
2022/12/10 12:20:44;;;;;;;21.05;14.30;;;9.50;89.80;;;;;;10786921;33;19953;-76
2022/12/10 12:27:00;;;;;;;17.00;11.27;;;9.60;90.00;;;;;;10725544;33;20032;-76
2022/12/10 12:33:31;;;;;;;14.30;10.07;;;9.60;90.00;;;;;;10715518;33;20025;-76
2022/12/10 12:39:58;;;;;;;23.58;11.95;;;9.70;89.90;;;;;;10789323;32;20036;-77
2022/12/10 12:46:04;;;;;;;21.35;10.13;;;9.70;89.90;;;;;;10785216;32;20044;-76
2022/12/10 12:52:06;;;;;;;15.68;8.15;;;9.70;89.90;;;;;;10787367;32;20099;-73
2022/12/10 12:58:52;;;;;;;15.10;9.75;;;9.70;89.90;;;;;;10788481;33;20047;-73
2022/12/10 13:05:00;;;;;;;14.38;9.38;;;9.70;89.80;;;;;;10752575;32;20032;-73
2022/12/10 13:11:18;;;;;;;13.60;7.10;;;9.70;89.80;;;;;;10751631;32;20029;-73
2022/12/10 13:17:37;;;;;;;15.85;9.30;;;9.70;89.80;;;;;;10820645;32;20058;-73
2022/12/10 13:23:56;;;;;;;23.08;13.48;;;9.70;89.80;;;;;;10824443;32;20024;-73
2022/12/10 13:30:12;;;;;;;12.67;8.93;;;9.70;89.70;;;;;;10824519;33;20403;-73
2022/12/10 13:36:21;;;;;;;16.80;10.50;;;9.70;89.80;;;;;;10822901;33;20120;-73
2022/12/10 13:49:04;;;;;;;13.62;10.10;;;9.70;89.80;;;;;;10718426;33;20079;-73
2022/12/10 13:55:20;;;;;;;20.60;13.93;;;9.70;89.80;;;;;;10719761;33;20046;-73
2022/12/10 14:01:49;;;;;;;22.77;15.05;;;9.70;89.90;;;;;;10719955;33;20043;-73
2022/12/10 14:07:59;;;;;;;22.35;15.43;;;9.70;89.90;;;;;;10718871;33;20065;-73
2022/12/10 14:14:04;;;;;;;16.45;10.40;;;9.70;89.90;;;;;;10719308;33;20064;-73
2022/12/10 14:20:08;;;;;;;13.60;9.10;;;9.70;89.90;;;;;;10719269;33;20020;-73
2022/12/10 14:26:20;;;;;;;17.70;11.35;;;9.70;89.90;;;;;;10719324;32;20326;-73
2022/12/10 14:32:31;;;;;;;19.00;13.38;;;9.70;89.80;;;;;;10719122;33;20054;-73
2022/12/10 14:38:34;;;;;;;15.45;10.57;;;9.70;89.90;;;;;;10721502;33;20040;-77
2022/12/10 14:44:39;;;;;;;17.25;9.98;;;9.70;89.90;;;;;;10717950;33;20029;-77
2022/12/10 14:50:42;;;;;;;17.73;11.15;;;9.70;89.90;;;;;;10718641;33;20135;-77
2022/12/10 14:56:45;;;;;;;16.37;10.95;;;9.70;89.80;;;;;;10717374;33;20351;-77
2022/12/10 15:03:10;;;;;;;14.05;9.80;;;9.70;89.80;;;;;;10717482;33;20028;-77
2022/12/10 15:09:19;;;;;;;22.40;15.20;;;9.70;89.90;;;;;;10715889;33;20049;-77
2022/12/10 15:15:28;;;;;;;16.65;10.20;;;9.70;89.80;;;;;;10717878;33;20078;-77
2022/12/10 15:21:40;;;;;;;22.07;16.20;;;9.70;89.90;;;;;;10717566;33;20037;-77
2022/12/10 15:27:56;;;;;;;22.77;17.12;;;9.60;89.80;;;;;;10717520;33;20052;-77
2022/12/10 15:34:01;;;;;;;19.23;15.00;;;9.60;89.90;;;;;;10717140;33;20029;-77
2022/12/10 15:40:06;;;;;;;32.75;19.75;;;9.60;89.90;;;;;;10716193;33;20041;-77
2022/12/10 15:46:17;;;;;;;28.48;20.60;;;9.60;89.90;;;;;;10716927;33;20391;-76
2022/12/10 15:52:42;;;;;;;42.40;25.65;;;9.50;89.90;;;;;;10712593;33;20071;-76
2022/12/10 15:58:57;;;;;;;46.15;30.90;;;9.40;90.00;;;;;;10716746;33;20025;-76
2022/12/10 16:04:59;;;;;;;44.85;27.15;;;9.40;90.00;;;;;;10716340;33;20056;-76
2022/12/10 16:11:22;;;;;;;57.20;40.92;;;9.30;90.00;;;;;;10715852;33;20052;-76
2022/12/10 16:17:23;;;;;;;55.03;35.03;;;9.30;90.10;;;;;;10715896;33;20029;-76
2022/12/10 16:23:25;;;;;;;41.53;28.92;;;9.20;90.10;;;;;;10740449;27;20114;-76
2022/12/10 16:29:30;;;;;;;47.15;31.95;;;9.20;90.10;;;;;;10752029;33;20020;-73
2022/12/10 16:35:34;;;;;;;39.00;28.05;;;9.20;90.10;;;;;;10738968;33;20020;-73
2022/12/10 16:41:36;;;;;;;39.33;25.58;;;9.20;90.10;;;;;;10751648;33;20017;-73
2022/12/10 16:47:37;;;;;;;35.63;27.90;;;9.20;90.00;;;;;;10751478;33;20039;-73
2022/12/10 16:53:43;;;;;;;32.45;24.35;;;9.20;90.10;;;;;;10754823;33;20028;-73
2022/12/10 16:59:46;;;;;;;42.20;30.25;;;9.20;90.00;;;;;;10751190;33;20033;-73
2022/12/10 17:05:59;;;;;;;40.03;28.98;;;9.20;90.10;;;;;;10751019;33;20025;-73
2022/12/10 17:12:01;;;;;;;40.85;26.00;;;9.20;90.10;;;;;;10751647;33;20390;-73
2022/12/10 17:18:03;;;;;;;28.80;19.17;;;9.20;90.10;;;;;;10747722;33;20025;-73
2022/12/10 17:24:05;;;;;;;30.12;20.08;;;9.20;90.10;;;;;;10756111;33;20025;-73
2022/12/10 17:30:15;;;;;;;27.35;19.70;;;9.20;90.10;;;;;;10758068;33;20417;-73
2022/12/10 17:36:37;;;;;;;27.75;19.00;;;9.30;90.00;;;;;;10756823;33;20020;-73
2022/12/10 17:42:39;;;;;;;25.75;17.00;;;9.30;90.00;;;;;;10752584;33;20024;-73
2022/12/10 17:48:41;;;;;;;24.12;15.95;;;9.30;90.10;;;;;;10756493;33;20040;-74
2022/12/10 17:54:43;;;;;;;20.05;12.93;;;9.40;90.00;;;;;;10756287;33;20025;-73
2022/12/10 18:00:45;;;;;;;23.02;15.63;;;9.40;90.00;;;;;;10743096;33;20025;-73
2022/12/10 18:06:47;;;;;;;34.63;25.15;;;9.40;90.00;;;;;;10755992;33;20043;-73
2022/12/10 18:12:49;;;;;;;24.73;17.87;;;9.50;90.00;;;;;;10755989;33;20051;-73
2022/12/10 18:18:51;;;;;;;29.77;19.65;;;9.50;90.10;;;;;;10754696;33;20013;-73
2022/12/10 18:24:53;;;;;;;27.17;18.85;;;9.50;90.10;;;;;;10755725;32;20055;-73
2022/12/10 18:30:55;;;;;;;21.73;14.95;;;9.50;90.10;;;;;;10755133;33;20029;-73
2022/12/10 18:36:58;;;;;;;17.23;12.73;;;9.50;90.20;;;;;;10755247;33;20017;-73
2022/12/10 18:43:00;;;;;;;20.85;15.60;;;9.50;90.20;;;;;;10754740;33;20025;-73
2022/12/10 18:49:03;;;;;;;16.77;12.25;;;9.50;90.30;;;;;;10754957;33;20083;-73
2022/12/10 18:55:22;;;;;;;16.58;10.90;;;9.50;90.40;;;;;;10754011;33;20024;-73
2022/12/10 19:01:25;;;;;;;15.07;9.18;;;9.50;90.40;;;;;;10753999;33;20020;-73
2022/12/10 19:07:27;;;;;;;12.48;8.45;;;9.50;90.40;;;;;;10754391;33;20035;-77
2022/12/10 19:13:29;;;;;;;12.57;7.75;;;9.50;90.40;;;;;;10754086;33;20032;-76
2022/12/10 19:20:03;;;;;;;9.75;6.85;;;9.50;90.50;;;;;;10754056;33;20016;-77
2022/12/10 19:26:25;;;;;;;8.88;5.82;;;9.60;90.50;;;;;;10753768;33;20024;-77
2022/12/10 19:32:27;;;;;;;10.38;6.93;;;9.60;90.40;;;;;;10753639;33;20334;-77
2022/12/10 19:38:30;;;;;;;7.62;5.47;;;9.60;90.50;;;;;;10753586;33;20024;-77
2022/12/10 19:44:32;;;;;;;6.75;4.57;;;9.60;90.50;;;;;;10752868;33;20054;-78
2022/12/10 19:50:36;;;;;;;7.05;5.30;;;9.60;90.40;;;;;;10753097;33;20040;-72
2022/12/10 19:56:38;;;;;;;8.20;5.50;;;9.60;90.40;;;;;;10753067;33;20308;-72
2022/12/10 20:02:40;;;;;;;8.25;5.10;;;9.50;90.50;;;;;;10739805;33;20025;-73
2022/12/10 20:08:43;;;;;;;6.43;4.53;;;9.50;90.50;;;;;;10752631;33;20056;-73
2022/12/10 20:14:45;;;;;;;7.85;4.60;;;9.50;90.50;;;;;;10752459;33;20028;-73
2022/12/10 20:20:47;;;;;;;5.75;4.15;;;9.50;90.50;;;;;;10748186;33;20047;-72
2022/12/10 20:26:50;;;;;;;4.78;3.00;;;9.50;90.50;;;;;;10752172;33;20304;-73
2022/12/10 20:32:53;;;;;;;5.85;3.17;;;9.50;90.40;;;;;;10739003;33;20064;-73
2022/12/10 20:38:55;;;;;;;4.25;2.60;;;9.60;90.40;;;;;;10751915;33;20025;-72
2022/12/10 20:44:57;;;;;;;5.00;3.00;;;9.50;90.40;;;;;;10748671;33;20017;-73
2022/12/10 20:50:59;;;;;;;4.15;2.42;;;9.50;90.20;;;;;;10747358;33;20051;-73
2022/12/10 20:57:02;;;;;;;5.85;3.72;;;9.50;90.40;;;;;;10750369;33;20024;-73
2022/12/10 21:03:05;;;;;;;6.55;4.10;;;9.50;90.30;;;;;;10751098;33;20070;-73
2022/12/10 21:09:09;;;;;;;8.77;5.20;;;9.50;90.40;;;;;;10750961;33;20025;-73
2022/12/10 21:15:14;;;;;;;10.50;6.55;;;9.50;90.30;;;;;;10738249;33;20063;-73
2022/12/10 21:21:19;;;;;;;5.60;4.25;;;9.60;90.30;;;;;;10750929;33;20020;-73
2022/12/10 21:27:21;;;;;;;8.90;5.05;;;9.50;90.30;;;;;;10750664;33;20052;-73
2022/12/10 21:33:24;;;;;;;3.65;2.62;;;9.50;90.20;;;;;;10747097;33;20078;-73
2022/12/10 21:39:26;;;;;;;5.28;3.37;;;9.50;90.30;;;;;;10750389;33;20017;-73
2022/12/10 21:45:29;;;;;;;5.37;3.62;;;9.40;90.30;;;;;;10750330;33;20021;-73
2022/12/10 21:51:51;;;;;;;8.20;4.60;;;9.40;90.30;;;;;;10749914;33;20033;-73
2022/12/10 21:57:53;;;;;;;5.87;3.67;;;9.40;90.40;;;;;;10737329;33;20039;-73
2022/12/10 22:03:56;;;;;;;5.43;3.33;;;9.40;90.30;;;;;;10745791;33;20051;-73
2022/12/10 22:10:26;;;;;;;4.53;2.95;;;9.40;90.30;;;;;;10754199;33;20017;-73
2022/12/10 22:16:28;;;;;;;4.05;2.75;;;9.30;90.20;;;;;;10742778;33;20386;-73
2022/12/10 22:22:31;;;;;;;5.00;2.85;;;9.30;90.30;;;;;;10752472;33;20044;-73
2022/12/10 22:28:33;;;;;;;4.62;3.22;;;9.30;90.30;;;;;;10756484;33;20067;-74
2022/12/10 22:34:36;;;;;;;5.00;3.05;;;9.40;90.30;;;;;;10755871;33;20043;-74
2022/12/10 22:41:04;;;;;;;4.32;2.80;;;9.30;90.20;;;;;;10755112;33;20059;-73
2022/12/10 22:47:05;;;;;;;4.97;3.28;;;9.20;90.20;;;;;;10755006;33;20017;-73
2022/12/10 22:53:08;;;;;;;4.53;2.30;;;9.30;90.30;;;;;;10741883;33;20300;-73
2022/12/10 22:59:10;;;;;;;4.93;2.87;;;9.30;90.30;;;;;;10752039;33;20021;-76
2022/12/10 23:05:13;;;;;;;3.97;2.90;;;9.30;90.10;;;;;;10741681;33;20064;-76
2022/12/10 23:11:23;;;;;;;4.85;2.78;;;9.20;90.10;;;;;;10754327;33;20440;-77
2022/12/10 23:17:24;;;;;;;5.03;3.30;;;9.20;90.30;;;;;;10753227;33;20055;-76
2022/12/10 23:23:27;;;;;;;6.87;3.85;;;9.30;90.20;;;;;;10753957;33;20327;-76
2022/12/10 23:36:34;;;;;;;5.07;2.33;;;9.20;90.10;;;;;;10753738;33;20051;-76
2022/12/10 23:42:36;;;;;;;8.43;3.87;;;9.20;90.20;;;;;;10753436;33;20059;-73
2022/12/10 23:48:38;;;;;;;4.32;2.65;;;9.20;90.20;;;;;;10740284;33;20025;-73
2022/12/10 23:54:43;;;;;;;4.87;2.70;;;9.20;90.10;;;;;;10748968;33;20033;-73
